New Harbor, ME

43° 52' 34"N, 69° 29' 40"W, Elevation 65 ft.
Eastern Time

Hourly observations for the last 72 hours

Date Time Temperature (°F) Humi-
dity

(%)
Wind
(mph)
Pressure Rain (in) Sun
(W/m2)
ET
(in)
Air Dew 6 Hour 1 Hr 3 Hr 6 Hr Day
Alt
(in)
Sea
Level

(mb)
Max Min
18 22:00 39.0 36.3 90 SW 1 G 2 30.16 1021.5 0.00 0 0.126
18 21:00 38.9 35.7 88 SW 1 G 1 30.17 1021.7 0.00 0 0.126
18 20:00 40.1 36.0 53.4 40.0 85 SE 1 G 2 30.17 1021.7 0.00 0 0.126
18 19:00 44.2 37.1 76 SE 1 G 2 30.17 1021.8 0.00 9 0.125
18 18:00 47.8 37.0 66 SE 2 G 5 30.18 1022.0 0.00 72 0.121
18 17:00 49.2 38.3 66 SSE 3 G 6 30.17 1021.9 0.00 381 0.112
18 16:00 50.1 41.8 73 ESE 2 G 5 30.17 1021.9 0.00 561 0.100
18 15:00 49.1 41.2 74 E 3 G 7 30.18 1022.1 0.00 707 0.085
18 14:00 52.7 44.3 54.0 43.1 73 ESE 4 G 6 30.19 1022.4 0.00 821 0.069
18 13:00 49.6 41.3 73 E 3 G 7 30.18 1022.2 0.00 867 0.052
18 12:00 50.2 40.4 69 E 5 G 10 30.19 1022.2 0.00 867 0.036
18 11:00 49.8 40.4 70 E 3 G 10 30.20 1022.6 0.00 802 0.023
18 10:00 47.6 37.6 68 E 6 G 12 30.20 1022.6 0.00 677 0.013
18 09:00 46.5 37.3 70 E 2 G 7 30.19 1022.5 0.00 448 0.006
18 08:00 43.3 33.5 43.3 34.7 68 ENE 3 G 8 30.19 1022.3 0.00 151 0.004
18 07:00 40.0 31.0 70 ENE 6 G 11 30.18 1021.9 0.00 33 0.003
18 06:00 37.9 30.0 73 ENE 3 G 7 30.16 1021.3 0.00 11 0.002
18 05:00 38.6 30.4 72 NE 3 G 8 30.15 1021.2 0.00 0 0.001
18 04:00 38.8 30.9 73 NE 3 G 8 30.16 1021.4 0.00 0 0.000
18 03:00 37.2 32.5 83 NE 2 G 4 30.16 1021.4 0.00 0 0.000
18 02:00 35.3 32.9 41.6 35.2 91 NW 2 G 2 30.17 1021.8 0.00 0 0.000
18 01:00 36.4 34.0 91 NW 1 G 3 30.18 1022.1 0.00 0 0.000
18 00:00 37.4 34.7 90 NW 1 G 4 30.18 1022.1 0.00 0 0.134
17 23:00 38.0 35.0 89 N 2 G 3 30.17 1021.8 0.00 0 0.134
17 22:00 38.8 35.3 87 W 1 G 2 30.16 1021.4 0.00 0 0.134
17 21:00 40.1 35.4 83 W 0 G 2 30.15 1021.2 0.00 0 0.134
17 20:00 41.6 35.3 52.5 41.6 78 W 1 G 3 30.12 1020.1 0.00 0 0.134
17 19:00 43.2 35.8 75 WSW 2 G 4 30.11 1019.8 0.00 18 0.133
17 18:00 44.7 35.5 70 S 3 G 11 30.11 1019.6 0.00 67 0.129
17 17:00 46.8 35.7 65 S 5 G 12 30.10 1019.4 0.00 315 0.120
17 16:00 50.0 35.4 57 SW 4 G 13 30.10 1019.5 0.00 543 0.107
17 15:00 50.7 35.1 55 SSW 9 G 15 30.12 1019.9 0.00 707 0.091
17 14:00 52.5 37.7 53.3 40.2 57 SE 4 G 11 30.12 1020.1 0.00 809 0.073
17 13:00 52.0 33.9 50 SSE 5 G 11 30.13 1020.4 0.00 867 0.055
17 12:00 51.4 31.8 47 WNW 5 G 10 30.14 1020.8 0.00 867 0.039
17 11:00 49.1 30.3 48 W 3 G 13 30.17 1021.6 0.00 793 0.026
17 10:00 46.2 29.5 52 NNW 3 G 12 30.18 1022.0 0.00 673 0.016
17 09:00 44.3 27.8 52 NNE 5 G 9 30.19 1022.5 0.00 443 0.010
17 08:00 40.2 27.8 40.2 32.5 61 NW 4 G 11 30.20 1022.7 0.00 167 0.008
17 07:00 35.0 27.2 73 WNW 2 G 5 30.19 1022.4 0.00 23 0.007
17 06:00 32.5 27.0 80 WNW 2 G 4 30.19 1022.2 0.00 5 0.007
17 05:00 32.9 26.5 77 NW 2 G 4 30.18 1021.9 0.00 0 0.006
17 04:00 34.0 27.6 77 WNW 2 G 4 30.17 1021.7 0.00 0 0.005
17 03:00 36.7 26.4 66 WNW 2 G 5 30.16 1021.5 0.00 0 0.004
17 02:00 39.2 26.5 52.5 39.2 60 N 3 G 6 30.16 1021.2 0.00 0 0.002
17 01:00 41.9 26.9 55 N 4 G 17 30.15 1021.0 0.00 0 0.000
17 00:00 43.7 29.5 57 N 6 G 14 30.13 1020.3 0.01 0 0.135
16 23:00 46.3 31.0 55 N 2 G 9 30.11 1019.7 0.01 0 0.133
16 22:00 47.9 32.1 54 N 4 G 14 30.11 1019.7 0.01 0 0.131
16 21:00 49.8 33.4 53 NNW 4 G 14 30.09 1019.0 0.01 0 0.129
16 20:00 52.5 34.9 62.8 52.5 51 NNE 4 G 11 30.06 1017.8 0.01 0 0.127
16 19:00 55.2 36.4 49 NNW 2 G 10 30.01 1016.5 0.01 12 0.124
16 18:00 59.5 36.4 42 N 4 G 11 29.99 1015.6 0.01 74 0.118
16 17:00 60.9 37.1 41 N 7 G 13 29.97 1015.0 0.01 427 0.112
16 16:00 58.9 41.3 52 SSW 2 G 9 29.97 1014.8 0.01 211 0.102
16 15:00 59.5 41.4 51 SW 5 G 9 29.97 1014.8 0.01 339 0.091
16 14:00 62.2 41.7 62.4 47.4 47 SSW 5 G 10 29.96 1014.6 0.01 149 0.075
16 13:00 61.1 40.2 46 SSW 5 G 14 29.95 1014.3 0.01 877 0.055
16 12:00 61.8 40.2 45 W 6 G 16 29.96 1014.6 0.01 851 0.035
16 11:00 59.0 37.7 45 W 5 G 12 29.97 1014.8 0.01 789 0.019
16 10:00 56.4 37.0 48 WNW 6 G 20 29.98 1015.2 0.01 671 0.007
16 09:00 53.3 40.2 61 WSW 5 G 11 29.97 1014.9 0.01 422 0.001
16 08:00 47.4 40.9 47.4 36.0 78 W 3 G 7 29.97 1014.9 0.01 0.01 0.01 0.01 213 0.000
16 07:00 39.6 37.7 93 NW 1 G 4 29.96 1014.6 0.00 25 0.000
16 06:00 36.3 34.7 94 NW 1 G 3 29.94 1013.9 0.00 5 0.000
16 05:00 36.7 35.1 94 NW 2 G 3 29.92 1013.2 0.00 0 0.000
16 04:00 38.0 36.4 94 NW 2 G 3 29.91 1013.0 0.00 0 0.000
16 03:00 37.6 36.0 94 NW 1 G 2 29.91 1013.0 0.00 0 0.000
16 02:00 39.5 37.9 51.3 39.5 94 NW 1 G 3 29.91 1012.9 0.00 0 0.000
16 01:00 40.4 38.5 93 NW 2 G 3 29.91 1012.9 0.00 0 0.000
16 00:00 42.0 39.8 92 NW 1 G 2 29.90 1012.6 0.00 0 0.122
15 23:00 43.4 41.2 92 NW 0 G 2 29.89 1012.2 0.00 0 0.122

Data generated by WxSolution Version 1.9.1.8, Build 2020.02.16.